createdAt,value
2022-08-26T00:02:00.392Z,27.60
2022-08-26T00:04:29.174Z,21.58
2022-08-26T00:06:57.635Z,20.25
2022-08-26T00:09:26.767Z,23.25
2022-08-26T00:11:58.257Z,20.83
2022-08-26T00:14:31.219Z,21.45
2022-08-26T00:17:01.059Z,21.27
2022-08-26T00:19:29.209Z,23.25
2022-08-26T00:21:57.569Z,20.52
2022-08-26T00:24:25.549Z,19.05
2022-08-26T00:26:53.857Z,21.05
2022-08-26T00:29:21.935Z,19.33
2022-08-26T00:31:50.576Z,20.08
2022-08-26T00:34:20.292Z,26.60
2022-08-26T00:36:52.065Z,19.23
2022-08-26T00:39:21.033Z,26.77
2022-08-26T00:41:50.076Z,23.63
2022-08-26T00:44:19.184Z,22.85
2022-08-26T00:46:52.074Z,23.45
2022-08-26T00:49:29.573Z,21.65
2022-08-26T00:52:00.008Z,20.58
2022-08-26T00:54:32.316Z,21.80
2022-08-26T00:57:03.904Z,21.58
2022-08-26T00:59:33.300Z,21.58
2022-08-26T01:02:02.895Z,24.48
2022-08-26T01:04:35.869Z,19.63
2022-08-26T01:07:05.308Z,23.55
2022-08-26T01:09:34.308Z,23.88
2022-08-26T01:12:04.132Z,19.17
2022-08-26T01:14:34.948Z,18.67
2022-08-26T01:17:07.226Z,26.60
2022-08-26T01:19:43.492Z,22.27
2022-08-26T01:22:15.164Z,20.15
2022-08-26T01:24:44.753Z,22.60
2022-08-26T01:27:17.048Z,23.45
2022-08-26T01:29:48.136Z,14.55
2022-08-26T01:32:20.813Z,16.85
2022-08-26T01:34:49.577Z,16.30
2022-08-26T01:37:20.535Z,13.63
2022-08-26T01:39:54.385Z,17.55
2022-08-26T01:42:24.384Z,14.27
2022-08-26T01:44:57.287Z,23.13
2022-08-26T01:47:28.579Z,14.38
2022-08-26T01:50:00.746Z,16.98
2022-08-26T01:52:31.316Z,16.50
2022-08-26T01:55:01.708Z,18.20
2022-08-26T01:57:30.635Z,17.70
2022-08-26T02:00:02.596Z,18.35
2022-08-26T02:02:30.783Z,18.23
2022-08-26T02:05:01.860Z,15.88
2022-08-26T02:07:30.583Z,14.02
2022-08-26T02:10:04.539Z,14.85
2022-08-26T02:12:33.651Z,13.18
2022-08-26T02:15:05.682Z,14.38
2022-08-26T02:17:39.171Z,15.65
2022-08-26T02:20:13.384Z,14.23
2022-08-26T02:22:45.028Z,13.80
2022-08-26T02:25:20.757Z,14.27
2022-08-26T02:27:49.146Z,13.90
2022-08-26T02:30:20.628Z,14.52
2022-08-26T02:32:49.644Z,17.52
2022-08-26T02:35:20.369Z,13.27
2022-08-26T02:37:49.463Z,13.35
2022-08-26T02:40:21.675Z,12.13
2022-08-26T02:42:49.865Z,14.48
2022-08-26T02:45:23.331Z,13.13
2022-08-26T02:47:52.923Z,14.75
2022-08-26T02:50:22.583Z,14.38
2022-08-26T02:52:51.332Z,13.05
2022-08-26T02:55:21.427Z,17.05
2022-08-26T02:57:53.065Z,15.55
2022-08-26T03:00:21.653Z,14.48
2022-08-26T03:02:52.550Z,12.68
2022-08-26T03:05:22.171Z,16.02
2022-08-26T03:07:52.953Z,16.80
2022-08-26T03:10:23.781Z,13.52
2022-08-26T03:12:54.062Z,15.07
2022-08-26T03:15:22.485Z,15.32
2022-08-26T03:17:50.789Z,15.32
2022-08-26T03:20:19.163Z,14.45
2022-08-26T03:22:47.557Z,15.35
2022-08-26T03:25:18.957Z,21.10
2022-08-26T03:27:48.601Z,16.83
2022-08-26T03:30:46.343Z,16.25
2022-08-26T03:33:15.323Z,17.17
2022-08-26T03:35:45.169Z,17.83
2022-08-26T03:38:13.187Z,16.80
2022-08-26T03:40:42.485Z,18.25
2022-08-26T03:43:15.955Z,15.63
2022-08-26T03:45:44.645Z,15.55
2022-08-26T03:48:14.034Z,15.40
2022-08-26T03:50:42.865Z,14.00
2022-08-26T03:53:13.196Z,15.52
2022-08-26T03:55:43.191Z,14.45
2022-08-26T03:58:12.620Z,15.73
2022-08-26T04:00:40.691Z,15.68
2022-08-26T04:03:09.941Z,18.23
2022-08-26T04:05:39.062Z,17.55
2022-08-26T04:08:07.117Z,18.85
2022-08-26T04:10:38.378Z,17.38
2022-08-26T04:13:06.453Z,25.98
2022-08-26T04:15:35.814Z,16.25
2022-08-26T04:18:04.287Z,16.45
2022-08-26T04:20:32.364Z,16.65
2022-08-26T04:23:00.538Z,17.45
2022-08-26T04:25:28.876Z,21.23
2022-08-26T04:27:56.931Z,16.80
2022-08-26T04:30:25.376Z,21.33
2022-08-26T04:32:55.007Z,17.50
2022-08-26T04:35:26.037Z,19.27
2022-08-26T04:37:55.486Z,16.42
2022-08-26T04:40:23.943Z,18.05
2022-08-26T04:42:54.000Z,19.63
2022-08-26T04:45:22.751Z,18.00
2022-08-26T04:47:56.415Z,19.75
2022-08-26T04:50:25.777Z,15.30
2022-08-26T04:52:55.348Z,18.23
2022-08-26T04:55:38.241Z,21.00
2022-08-26T04:58:10.337Z,16.33
2022-08-26T05:00:39.413Z,20.45
2022-08-26T05:03:10.516Z,20.63
2022-08-26T05:05:41.106Z,18.23
2022-08-26T05:08:09.986Z,17.63
2022-08-26T05:10:43.602Z,19.05
2022-08-26T05:13:15.132Z,19.08
2022-08-26T05:15:44.561Z,19.25
2022-08-26T05:18:16.351Z,18.27
2022-08-26T05:20:47.895Z,18.13
2022-08-26T05:23:17.069Z,19.02
2022-08-26T05:25:47.728Z,19.10
2022-08-26T05:28:18.091Z,18.20
2022-08-26T05:30:47.123Z,16.40
2022-08-26T05:33:17.849Z,18.13
2022-08-26T05:35:46.922Z,17.23
2022-08-26T05:38:18.691Z,19.08
2022-08-26T05:40:49.576Z,17.73
2022-08-26T05:43:22.384Z,20.92
2022-08-26T05:45:51.919Z,19.90
2022-08-26T05:48:22.708Z,16.58
2022-08-26T05:50:55.663Z,16.92
2022-08-26T05:53:26.111Z,17.77
2022-08-26T05:55:56.219Z,19.00
2022-08-26T05:58:24.731Z,23.20
2022-08-26T06:01:00.271Z,21.20
2022-08-26T06:03:31.619Z,23.13
2022-08-26T06:05:59.931Z,23.95
2022-08-26T06:08:28.031Z,19.50
2022-08-26T06:11:00.279Z,20.45
2022-08-26T06:13:30.492Z,18.98
2022-08-26T06:16:03.241Z,17.55
2022-08-26T06:18:36.564Z,19.67
2022-08-26T06:21:14.913Z,19.95
2022-08-26T06:24:00.478Z,16.17
2022-08-26T06:26:29.078Z,17.70
2022-08-26T06:28:59.288Z,15.68
2022-08-26T06:31:27.825Z,16.20
2022-08-26T06:33:58.796Z,13.00
2022-08-26T06:36:30.502Z,14.02
2022-08-26T06:39:03.174Z,14.15
2022-08-26T06:41:33.606Z,15.65
2022-08-26T06:44:02.526Z,14.30
2022-08-26T06:46:31.046Z,16.08
2022-08-26T06:49:00.534Z,13.77
2022-08-26T06:51:30.218Z,13.77
2022-08-26T06:54:00.370Z,12.70
2022-08-26T06:56:30.283Z,13.43
2022-08-26T06:58:58.329Z,10.30
2022-08-26T07:01:28.091Z,10.77
2022-08-26T07:03:58.723Z,13.13
2022-08-26T07:06:29.294Z,10.90
2022-08-26T07:09:04.464Z,13.48
2022-08-26T07:11:33.703Z,12.80
2022-08-26T07:14:02.067Z,11.32
2022-08-26T07:16:33.430Z,7.50
2022-08-26T07:19:03.329Z,10.20
2022-08-26T07:21:33.043Z,8.63
2022-08-26T07:24:01.695Z,9.35
2022-08-26T07:26:31.646Z,8.93
2022-08-26T07:29:01.822Z,8.27
2022-08-26T07:31:37.371Z,7.20
2022-08-26T07:34:09.304Z,7.72
2022-08-26T07:36:39.403Z,9.18
2022-08-26T07:39:07.886Z,9.90
2022-08-26T07:41:36.553Z,11.65
2022-08-26T07:44:04.899Z,8.90
2022-08-26T07:46:33.544Z,7.93
2022-08-26T07:49:01.916Z,8.45
2022-08-26T07:51:31.867Z,6.35
2022-08-26T07:54:01.354Z,6.55
2022-08-26T07:56:29.379Z,8.18
2022-08-26T07:58:57.459Z,6.15
2022-08-26T08:01:27.057Z,7.65
2022-08-26T08:03:56.399Z,7.55
2022-08-26T08:06:28.168Z,7.32
2022-08-26T08:08:56.510Z,9.38
2022-08-26T08:11:27.248Z,5.22
2022-08-26T08:13:56.408Z,8.27
2022-08-26T08:16:25.935Z,10.10
2022-08-26T08:18:54.692Z,5.82
2022-08-26T08:21:24.459Z,5.78
2022-08-26T08:23:53.388Z,7.05
2022-08-26T08:26:24.765Z,6.00
2022-08-26T08:28:58.863Z,5.18
2022-08-26T08:31:56.051Z,6.68
2022-08-26T08:34:18.217Z,7.07
2022-08-26T08:36:46.757Z,9.63
2022-08-26T08:39:15.278Z,4.55
2022-08-26T08:41:55.255Z,9.30
2022-08-26T08:47:02.990Z,9.05
2022-08-26T08:49:32.048Z,5.15
2022-08-26T08:52:04.733Z,5.38
2022-08-26T08:54:33.924Z,9.60
2022-08-26T08:57:07.246Z,8.27
2022-08-26T08:59:42.234Z,5.20
2022-08-26T09:02:19.944Z,3.97
2022-08-26T09:05:15.042Z,4.45
2022-08-26T09:07:49.383Z,6.55
2022-08-26T09:10:32.122Z,5.78
2022-08-26T09:13:02.378Z,4.78
2022-08-26T09:15:46.607Z,6.50
2022-08-26T09:18:26.855Z,4.68
2022-08-26T09:20:59.468Z,9.02
2022-08-26T09:23:28.260Z,5.25
2022-08-26T09:25:59.491Z,6.05
2022-08-26T09:28:29.750Z,6.05
2022-08-26T09:31:11.535Z,5.35
2022-08-26T09:33:41.214Z,3.63
2022-08-26T09:36:39.354Z,7.03
2022-08-26T09:39:30.868Z,6.72
2022-08-26T09:42:11.767Z,5.28
2022-08-26T09:44:57.851Z,9.43
2022-08-26T09:47:31.721Z,4.55
2022-08-26T09:50:09.554Z,3.80
2022-08-26T09:52:40.308Z,7.85
2022-08-26T09:55:14.315Z,4.25
2022-08-26T09:57:49.614Z,4.82
2022-08-26T10:00:32.315Z,5.97
2022-08-26T10:03:05.285Z,6.43
2022-08-26T10:05:39.825Z,7.47
2022-08-26T10:08:24.466Z,5.13
2022-08-26T10:10:53.707Z,5.53
2022-08-26T10:13:29.465Z,9.77
2022-08-26T10:16:07.079Z,5.35
2022-08-26T10:18:44.560Z,11.05
2022-08-26T10:21:18.064Z,6.28
2022-08-26T10:23:50.616Z,5.50
2022-08-26T10:26:23.994Z,5.43
2022-08-26T10:28:57.343Z,4.65
2022-08-26T10:31:30.230Z,6.47
2022-08-26T10:34:08.103Z,7.07
2022-08-26T10:37:14.753Z,5.63
2022-08-26T10:39:46.229Z,5.57
2022-08-26T10:42:23.238Z,6.78
2022-08-26T10:44:58.547Z,6.97
2022-08-26T10:47:32.444Z,5.93
2022-08-26T10:50:03.647Z,9.77
2022-08-26T10:52:45.633Z,3.88
2022-08-26T10:55:20.112Z,5.47
2022-08-26T10:57:56.196Z,4.47
2022-08-26T11:00:48.131Z,5.90
2022-08-26T11:03:31.484Z,9.15
2022-08-26T11:06:24.522Z,5.60
2022-08-26T11:08:54.480Z,5.53
2022-08-26T11:11:46.851Z,5.50
2022-08-26T11:14:53.011Z,4.97
2022-08-26T11:17:56.421Z,4.30
2022-08-26T11:20:37.513Z,4.15
2022-08-26T11:23:50.398Z,4.60
2022-08-26T11:26:35.611Z,4.70
2022-08-26T11:29:13.117Z,5.95
2022-08-26T11:31:55.903Z,6.05
2022-08-26T11:34:55.107Z,5.10
2022-08-26T11:37:32.373Z,6.95
2022-08-26T11:40:04.552Z,5.63
2022-08-26T11:42:40.958Z,5.32
2022-08-26T11:45:19.740Z,4.72
2022-08-26T11:47:49.488Z,3.53
2022-08-26T11:50:21.589Z,5.45
2022-08-26T11:52:55.862Z,4.18
2022-08-26T11:55:24.509Z,5.35
2022-08-26T11:57:56.755Z,6.18
2022-08-26T12:00:28.393Z,3.83
2022-08-26T12:03:06.393Z,5.50
2022-08-26T12:05:39.770Z,3.70
2022-08-26T12:08:12.332Z,6.40
2022-08-26T12:10:40.724Z,4.32
2022-08-26T12:13:21.589Z,6.18
2022-08-26T12:15:55.789Z,4.68
2022-08-26T12:18:29.511Z,6.45
2022-08-26T12:21:00.641Z,4.00
2022-08-26T12:23:43.382Z,5.80
2022-08-26T12:26:15.276Z,2.50
2022-08-26T12:28:46.112Z,4.72
2022-08-26T12:31:25.120Z,4.25
2022-08-26T12:33:54.175Z,3.95
2022-08-26T12:36:27.651Z,6.25
2022-08-26T12:38:58.849Z,4.70
2022-08-26T12:41:40.699Z,4.72
2022-08-26T12:44:08.943Z,5.53
2022-08-26T12:46:37.559Z,4.10
2022-08-26T12:49:05.665Z,5.55
2022-08-26T12:51:35.333Z,4.00
2022-08-26T12:54:06.904Z,4.70
2022-08-26T12:56:39.645Z,4.13
2022-08-26T12:59:20.260Z,6.60
2022-08-26T13:01:49.581Z,6.32
2022-08-26T13:04:39.539Z,4.43
2022-08-26T13:07:22.460Z,4.68
2022-08-26T13:09:53.691Z,6.00
2022-08-26T13:12:30.575Z,5.75
2022-08-26T13:14:59.910Z,4.78
2022-08-26T13:17:28.844Z,2.50
2022-08-26T13:20:03.256Z,4.90
2022-08-26T13:22:33.784Z,4.18
2022-08-26T13:25:03.494Z,3.20
2022-08-26T13:27:31.741Z,5.30
2022-08-26T13:30:00.373Z,5.35
2022-08-26T13:32:28.884Z,4.35
2022-08-26T13:34:58.615Z,6.55
2022-08-26T13:37:35.241Z,4.07
2022-08-26T13:40:07.021Z,7.90
2022-08-26T13:42:35.327Z,5.28
2022-08-26T13:45:03.640Z,5.20
2022-08-26T13:47:31.983Z,3.55
2022-08-26T13:50:00.165Z,5.50
2022-08-26T13:52:30.521Z,4.32
2022-08-26T13:55:00.276Z,6.78
2022-08-26T13:57:30.608Z,6.47
2022-08-26T14:00:00.127Z,9.63
2022-08-26T14:02:29.020Z,7.05
2022-08-26T14:04:57.043Z,3.92
2022-08-26T14:07:25.413Z,5.70
2022-08-26T14:09:53.565Z,3.13
2022-08-26T14:12:21.629Z,5.35
2022-08-26T14:14:51.430Z,4.95
2022-08-26T14:17:22.690Z,5.68
2022-08-26T14:19:51.661Z,4.18
2022-08-26T14:22:23.073Z,6.65
2022-08-26T14:24:51.605Z,6.00
2022-08-26T14:27:19.769Z,6.22
2022-08-26T14:29:47.949Z,4.35
2022-08-26T14:32:22.967Z,6.40
2022-08-26T14:34:51.409Z,8.40
2022-08-26T14:37:20.101Z,9.10
2022-08-26T14:39:48.713Z,4.65
2022-08-26T14:42:20.941Z,5.05
2022-08-26T14:44:54.663Z,2.70
2022-08-26T14:47:24.263Z,5.00
2022-08-26T14:49:52.895Z,5.05
2022-08-26T14:52:21.479Z,2.65
2022-08-26T14:54:48.642Z,6.43
2022-08-26T14:57:23.295Z,5.35
2022-08-26T14:59:51.421Z,6.45
2022-08-26T15:02:19.752Z,3.92
2022-08-26T15:05:02.666Z,4.50
2022-08-26T15:07:31.233Z,3.25
2022-08-26T15:09:59.413Z,2.95
2022-08-26T15:12:27.873Z,4.30
2022-08-26T15:14:56.106Z,4.70
2022-08-26T15:17:24.266Z,7.22
2022-08-26T15:19:53.401Z,4.10
2022-08-26T15:22:22.897Z,6.97
2022-08-26T15:24:53.573Z,5.53
2022-08-26T15:27:22.249Z,4.05
2022-08-26T15:29:50.549Z,7.72
2022-08-26T15:32:19.177Z,4.35
2022-08-26T15:34:47.428Z,3.45
2022-08-26T15:37:15.577Z,5.32
2022-08-26T15:39:45.269Z,3.10
2022-08-26T15:42:13.542Z,7.30
2022-08-26T15:44:46.997Z,8.82
2022-08-26T15:47:15.166Z,3.63
2022-08-26T15:49:43.653Z,5.22
2022-08-26T15:52:12.137Z,3.65
2022-08-26T15:54:41.025Z,4.82
2022-08-26T15:57:12.349Z,6.60
2022-08-26T15:59:41.757Z,6.07
2022-08-26T16:02:10.085Z,5.88
2022-08-26T16:04:38.246Z,2.83
2022-08-26T16:07:06.457Z,4.32
2022-08-26T16:09:34.612Z,5.65
2022-08-26T16:12:02.759Z,4.25
2022-08-26T16:14:32.312Z,4.85
2022-08-26T16:17:00.379Z,5.40
2022-08-26T16:19:28.596Z,4.47
2022-08-26T16:21:56.634Z,4.70
2022-08-26T16:24:29.745Z,4.40
2022-08-26T16:26:58.976Z,4.15
2022-08-26T16:29:27.311Z,3.65
2022-08-26T16:31:56.709Z,8.30
2022-08-26T16:34:24.837Z,5.03
2022-08-26T16:36:53.294Z,3.67
2022-08-26T16:39:21.460Z,7.18
2022-08-26T16:41:49.484Z,6.75
2022-08-26T16:44:17.792Z,4.40
2022-08-26T16:46:46.137Z,7.03
2022-08-26T16:49:15.588Z,5.70
2022-08-26T16:51:43.713Z,6.18
2022-08-26T16:54:11.844Z,5.20
2022-08-26T16:56:40.648Z,11.75
2022-08-26T16:59:10.601Z,5.43
2022-08-26T17:01:38.838Z,5.07
2022-08-26T17:04:07.005Z,4.57
2022-08-26T17:06:36.832Z,4.25
2022-08-26T17:09:05.573Z,4.88
2022-08-26T17:11:34.176Z,4.00
2022-08-26T17:14:02.990Z,5.45
2022-08-26T17:16:31.192Z,6.13
2022-08-26T17:19:00.183Z,10.85
2022-08-26T17:21:30.895Z,5.95
2022-08-26T17:24:00.483Z,5.40
2022-08-26T17:26:28.856Z,4.22
2022-08-26T17:28:56.932Z,4.00
2022-08-26T17:31:25.518Z,6.32
2022-08-26T17:33:55.455Z,5.25
2022-08-26T17:36:27.633Z,4.80
2022-08-26T17:38:57.096Z,6.57
2022-08-26T17:41:27.751Z,4.80
2022-08-26T17:43:56.111Z,10.80
2022-08-26T17:46:24.504Z,3.08
2022-08-26T17:48:52.646Z,6.00
2022-08-26T17:51:20.995Z,6.45
2022-08-26T17:53:49.508Z,4.68
2022-08-26T17:56:19.976Z,4.53
2022-08-26T17:58:51.237Z,6.88
2022-08-26T18:01:20.304Z,5.30
2022-08-26T18:03:48.730Z,5.95
2022-08-26T18:06:17.114Z,4.00
2022-08-26T18:08:45.252Z,8.38
2022-08-26T18:11:15.460Z,9.48
2022-08-26T18:13:46.967Z,13.65
2022-08-26T18:16:18.989Z,14.30
2022-08-26T18:18:47.897Z,15.93
2022-08-26T18:21:18.040Z,20.15
2022-08-26T18:23:47.530Z,28.15
2022-08-26T18:26:20.609Z,14.93
2022-08-26T18:28:48.627Z,11.40
2022-08-26T18:31:18.644Z,9.95
2022-08-26T18:33:46.941Z,18.15
2022-08-26T18:36:19.590Z,16.65
2022-08-26T18:38:50.326Z,12.93
2022-08-26T18:41:20.693Z,15.68
2022-08-26T18:43:50.402Z,14.10
2022-08-26T18:46:21.017Z,9.35
2022-08-26T18:48:51.150Z,16.55
2022-08-26T18:51:21.347Z,11.57
2022-08-26T18:53:49.519Z,12.88
2022-08-26T18:56:18.691Z,14.70
2022-08-26T18:58:47.473Z,12.50
2022-08-26T19:01:16.512Z,12.43
2022-08-26T19:03:46.500Z,13.32
2022-08-26T19:06:15.568Z,9.63
2022-08-26T19:08:44.534Z,17.80
2022-08-26T19:11:13.887Z,11.60
2022-08-26T19:13:42.194Z,14.88
2022-08-26T19:16:16.565Z,10.80
2022-08-26T19:18:46.316Z,14.20
2022-08-26T19:21:15.208Z,10.02
2022-08-26T19:23:43.466Z,17.63
2022-08-26T19:26:12.520Z,13.93
2022-08-26T19:28:41.306Z,10.77
2022-08-26T19:31:10.810Z,12.80
2022-08-26T19:33:39.529Z,15.52
2022-08-26T19:36:15.046Z,10.20
2022-08-26T19:38:43.767Z,11.13
2022-08-26T19:41:13.542Z,10.13
2022-08-26T19:43:41.814Z,10.75
2022-08-26T19:46:12.743Z,10.18
2022-08-26T19:48:43.895Z,9.52
2022-08-26T19:51:15.670Z,13.07
2022-08-26T19:53:44.742Z,12.50
2022-08-26T19:56:13.471Z,12.00
2022-08-26T19:58:41.943Z,9.45
2022-08-26T20:01:10.973Z,12.18
2022-08-26T20:03:39.295Z,13.80
2022-08-26T20:06:09.654Z,12.05
2022-08-26T20:08:41.002Z,18.83
2022-08-26T20:11:12.198Z,16.98
2022-08-26T20:13:41.028Z,11.10
2022-08-26T20:16:10.321Z,10.98
2022-08-26T20:18:56.198Z,9.40
2022-08-26T20:21:27.223Z,14.35
2022-08-26T20:23:59.226Z,9.38
2022-08-26T20:26:28.057Z,11.43
2022-08-26T20:28:56.556Z,11.07
2022-08-26T20:31:25.347Z,14.32
2022-08-26T20:33:53.962Z,9.18
2022-08-26T20:36:24.649Z,10.25
2022-08-26T20:38:52.830Z,12.45
2022-08-26T20:41:24.144Z,12.35
2022-08-26T20:43:52.357Z,10.02
2022-08-26T20:46:24.556Z,11.48
2022-08-26T20:48:53.932Z,10.75
2022-08-26T20:51:23.631Z,10.95
2022-08-26T20:53:51.984Z,13.55
2022-08-26T20:56:24.470Z,8.00
2022-08-26T20:58:54.096Z,13.63
2022-08-26T21:01:28.057Z,12.32
2022-08-26T21:03:57.508Z,10.63
2022-08-26T21:06:26.035Z,11.32
2022-08-26T21:08:54.844Z,13.15
2022-08-26T21:11:25.805Z,15.32
2022-08-26T21:14:16.565Z,11.57
2022-08-26T21:16:43.467Z,13.82
2022-08-26T21:19:13.323Z,16.77
2022-08-26T21:21:41.803Z,13.57
2022-08-26T21:24:10.347Z,16.73
2022-08-26T21:26:39.836Z,12.77
2022-08-26T21:29:09.737Z,13.50
2022-08-26T21:31:44.946Z,9.75
2022-08-26T21:34:14.610Z,15.38
2022-08-26T21:36:42.651Z,17.98
2022-08-26T21:39:12.222Z,22.10
2022-08-26T21:41:43.415Z,21.92
2022-08-26T21:44:12.372Z,18.67
2022-08-26T21:46:41.204Z,21.42
2022-08-26T21:49:12.331Z,18.58
2022-08-26T21:51:42.905Z,20.88
2022-08-26T21:54:11.739Z,16.25
2022-08-26T21:56:44.323Z,17.83
2022-08-26T21:59:16.340Z,18.52
2022-08-26T22:01:44.543Z,15.50
2022-08-26T22:04:12.942Z,15.05
2022-08-26T22:06:43.372Z,13.57
2022-08-26T22:09:12.790Z,10.13
2022-08-26T22:11:42.274Z,15.35
2022-08-26T22:14:10.695Z,10.85
2022-08-26T22:16:39.077Z,17.65
2022-08-26T22:19:07.555Z,11.02
2022-08-26T22:21:40.419Z,11.07
2022-08-26T22:24:12.146Z,12.73
2022-08-26T22:26:40.439Z,15.70
2022-08-26T22:29:09.815Z,10.55
2022-08-26T22:31:38.785Z,11.25
2022-08-26T22:34:09.486Z,9.27
2022-08-26T22:36:42.984Z,10.73
2022-08-26T22:39:13.479Z,10.18
2022-08-26T22:41:42.164Z,9.98
2022-08-26T22:44:12.561Z,10.05
2022-08-26T22:46:42.458Z,10.60
2022-08-26T22:49:12.135Z,14.43
2022-08-26T22:51:40.306Z,12.40
2022-08-26T22:54:08.547Z,9.68
2022-08-26T22:56:38.081Z,14.52
2022-08-26T22:59:07.982Z,13.10
2022-08-26T23:01:39.280Z,10.90
2022-08-26T23:04:08.648Z,9.35
2022-08-26T23:06:38.146Z,9.68
2022-08-26T23:09:07.187Z,10.10
2022-08-26T23:11:35.849Z,11.05
2022-08-26T23:14:06.128Z,9.18
2022-08-26T23:16:39.107Z,14.95
2022-08-26T23:19:07.998Z,9.82
2022-08-26T23:21:36.091Z,10.18
2022-08-26T23:24:04.654Z,11.52
2022-08-26T23:26:32.913Z,12.75
2022-08-26T23:29:01.053Z,10.82
2022-08-26T23:31:29.330Z,9.80
2022-08-26T23:34:16.213Z,15.85
2022-08-26T23:36:46.325Z,11.68
2022-08-26T23:39:15.189Z,9.90
2022-08-26T23:41:43.799Z,9.65
2022-08-26T23:44:12.770Z,10.77
2022-08-26T23:46:41.245Z,11.70
2022-08-26T23:49:10.840Z,12.30
2022-08-26T23:51:57.347Z,12.18
2022-08-26T23:54:25.593Z,15.13
2022-08-26T23:56:53.701Z,13.82
2022-08-26T23:59:22.273Z,11.07
